sensor_id;sensor_type;location;lat;lon;timestamp;pressure;altitude;pressure_sealevel;temperature;humidity
40460;BME280;26164;51.138;16.952;2023-10-19T01:43:17;74539.47;;;-146.39;32.12
40460;BME280;26164;51.138;16.952;2023-10-19T01:56:02;74531.31;;;-146.39;32.02
40460;BME280;26164;51.138;16.952;2023-10-19T01:59:51;74506.81;;;-146.39;32.03
40460;BME280;26164;51.138;16.952;2023-10-19T04:01:18;74645.56;;;-146.39;33.81
40460;BME280;26164;51.138;16.952;2023-10-19T04:04:15;74388.47;;;-146.39;32.68
40460;BME280;26164;51.138;16.952;2023-10-19T04:07:13;74492.53;;;-146.39;32.76
40460;BME280;26164;51.138;16.952;2023-10-19T04:27:43;74486.41;;;-146.39;32.91
40460;BME280;26164;51.138;16.952;2023-10-19T04:30:17;74474.16;;;-146.39;33.00
40460;BME280;26164;51.138;16.952;2023-10-19T04:34:20;74382.34;;;-146.39;32.41
40460;BME280;26164;51.138;16.952;2023-10-19T04:37:47;74325.22;;;-146.39;32.11
40460;BME280;26164;51.138;16.952;2023-10-19T04:40:51;74372.16;;;-146.39;32.06
40460;BME280;26164;51.138;16.952;2023-10-19T04:43:19;74370.09;;;-146.39;32.30
40460;BME280;26164;51.138;16.952;2023-10-19T05:11:50;74331.34;;;-146.39;32.38
40460;BME280;26164;51.138;16.952;2023-10-19T05:22:05;74153.84;;;-146.39;30.90
40460;BME280;26164;51.138;16.952;2023-10-19T05:25:37;74282.38;;;-146.39;32.19
40460;BME280;26164;51.138;16.952;2023-10-19T06:03:46;74231.38;;;-146.39;31.48
40460;BME280;26164;51.138;16.952;2023-10-19T08:43:27;74043.66;;;-146.39;34.44
40460;BME280;26164;51.138;16.952;2023-10-19T08:51:17;73817.19;;;-146.39;32.18
40460;BME280;26164;51.138;16.952;2023-10-19T08:54:33;73906.97;;;-146.39;32.56
40460;BME280;26164;51.138;16.952;2023-10-19T08:57:15;73894.72;;;-146.39;32.81
40460;BME280;26164;51.138;16.952;2023-10-19T09:03:34;73825.38;;;-146.39;32.56
40460;BME280;26164;51.138;16.952;2023-10-19T09:11:27;73957.97;;;-146.39;33.71
40460;BME280;26164;51.138;16.952;2023-10-19T09:14:23;74057.94;;;-146.39;34.70
40460;BME280;26164;51.138;16.952;2023-10-19T09:21:52;73915.13;;;-146.39;33.23
40460;BME280;26164;51.138;16.952;2023-10-19T09:24:55;73925.34;;;-146.39;33.47
40460;BME280;26164;51.138;16.952;2023-10-19T09:27:54;73821.28;;;-146.39;32.60
40460;BME280;26164;51.138;16.952;2023-10-19T09:30:36;73966.13;;;-146.39;33.73
40460;BME280;26164;51.138;16.952;2023-10-19T09:33:27;74066.09;;;-146.39;34.88
40460;BME280;26164;51.138;16.952;2023-10-19T09:37:10;73931.44;;;-146.39;33.91
40460;BME280;26164;51.138;16.952;2023-10-19T09:40:15;73894.72;;;-146.39;33.33
40460;BME280;26164;51.138;16.952;2023-10-19T09:46:44;74106.91;;;-146.39;35.49
40460;BME280;26164;51.138;16.952;2023-10-19T10:08:36;74000.81;;;-146.39;35.55
40460;BME280;26164;51.138;16.952;2023-10-19T10:11:24;73872.28;;;-146.39;34.65
40460;BME280;26164;51.138;16.952;2023-10-19T10:13:56;73817.19;;;-146.39;34.33
40460;BME280;26164;51.138;16.952;2023-10-19T10:16:28;73853.94;;;-146.39;34.26
40460;BME280;26164;51.138;16.952;2023-10-19T10:19:00;73776.41;;;-146.39;34.11
40460;BME280;26164;51.138;16.952;2023-10-19T10:21:28;73878.41;;;-146.39;35.32
40460;BME280;26164;51.138;16.952;2023-10-19T10:23:59;73772.31;;;-146.39;34.32
40460;BME280;26164;51.138;16.952;2023-10-19T10:26:28;73817.19;;;-146.39;34.95
40460;BME280;26164;51.138;16.952;2023-10-19T10:29:14;73817.19;;;-146.39;34.77
40460;BME280;26164;51.138;16.952;2023-10-19T10:31:52;73972.25;;;-146.39;36.16
40460;BME280;26164;51.138;16.952;2023-10-19T10:37:20;74033.47;;;-146.39;36.55
40460;BME280;26164;51.138;16.952;2023-10-19T10:39:46;73819.25;;;-146.39;35.13
40460;BME280;26164;51.138;16.952;2023-10-19T10:42:16;73723.34;;;-146.39;34.43
40460;BME280;26164;51.138;16.952;2023-10-19T10:44:47;73837.59;;;-146.39;35.65
40460;BME280;26164;51.138;16.952;2023-10-19T10:47:26;73737.63;;;-146.39;34.62
40460;BME280;26164;51.138;16.952;2023-10-19T10:49:58;73715.19;;;-146.39;34.67
40460;BME280;26164;51.138;16.952;2023-10-19T10:52:31;73696.84;;;-146.39;34.38
40460;BME280;26164;51.138;16.952;2023-10-19T10:55:11;73774.38;;;-146.39;34.96
40460;BME280;26164;51.138;16.952;2023-10-19T10:57:42;73866.16;;;-146.39;36.35
40460;BME280;26164;51.138;16.952;2023-10-19T11:00:11;74039.59;;;-146.39;37.79
40460;BME280;26164;51.138;16.952;2023-10-19T11:02:47;73919.22;;;-146.39;37.17
40460;BME280;26164;51.138;16.952;2023-10-19T11:05:28;73829.44;;;-146.39;36.10
40460;BME280;26164;51.138;16.952;2023-10-19T11:10:31;73874.31;;;-146.39;36.87
40460;BME280;26164;51.138;16.952;2023-10-19T11:13:10;73839.66;;;-146.39;36.89
40460;BME280;26164;51.138;16.952;2023-10-19T11:15:38;73796.81;;;-146.39;36.21
40460;BME280;26164;51.138;16.952;2023-10-19T11:18:09;73751.91;;;-146.39;35.60
40460;BME280;26164;51.138;16.952;2023-10-19T11:20:35;73780.47;;;-146.39;36.10
40460;BME280;26164;51.138;16.952;2023-10-19T11:23:03;73747.84;;;-146.39;35.75
40460;BME280;26164;51.138;16.952;2023-10-19T11:25:32;73964.09;;;-146.39;37.52
40460;BME280;26164;51.138;16.952;2023-10-19T11:28:16;73951.84;;;-146.39;37.52
40460;BME280;26164;51.138;16.952;2023-10-19T11:30:43;73943.69;;;-146.39;38.16
40460;BME280;26164;51.138;16.952;2023-10-19T11:36:44;73894.72;;;-146.39;37.70
40460;BME280;26164;51.138;16.952;2023-10-19T11:42:56;73833.53;;;-146.39;37.00
40460;BME280;26164;51.138;16.952;2023-10-19T11:45:30;73782.53;;;-146.39;36.54
40460;BME280;26164;51.138;16.952;2023-10-19T11:48:03;73678.47;;;-146.39;35.95
40460;BME280;26164;51.138;16.952;2023-10-19T11:50:42;73711.13;;;-146.39;36.17
40460;BME280;26164;51.138;16.952;2023-10-19T11:53:11;73758.03;;;-146.39;36.76
40460;BME280;26164;51.138;16.952;2023-10-19T11:55:45;73796.81;;;-146.39;37.22
40460;BME280;26164;51.138;16.952;2023-10-19T11:58:22;73784.56;;;-146.39;37.53
40460;BME280;26164;51.138;16.952;2023-10-19T12:00:54;73758.03;;;-146.39;37.22
40460;BME280;26164;51.138;16.952;2023-10-19T12:03:24;73768.25;;;-146.39;36.57
40460;BME280;26164;51.138;16.952;2023-10-19T12:05:52;73702.97;;;-146.39;36.17
40460;BME280;26164;51.138;16.952;2023-10-19T12:08:52;73643.78;;;-146.39;35.89
40460;BME280;26164;51.138;16.952;2023-10-19T12:11:23;73747.84;;;-146.39;36.73
40460;BME280;26164;51.138;16.952;2023-10-19T12:13:50;73727.44;;;-146.39;36.41
40460;BME280;26164;51.138;16.952;2023-10-19T12:16:21;73894.72;;;-146.39;37.84
40460;BME280;26164;51.138;16.952;2023-10-19T12:18:50;73731.53;;;-146.39;37.36
40460;BME280;26164;51.138;16.952;2023-10-19T12:21:20;73717.25;;;-146.39;37.02
40460;BME280;26164;51.138;16.952;2023-10-19T12:23:55;73747.84;;;-146.39;37.39
40460;BME280;26164;51.138;16.952;2023-10-19T12:26:25;73645.84;;;-146.39;36.43
40460;BME280;26164;51.138;16.952;2023-10-19T12:28:54;73764.16;;;-146.39;37.59
40460;BME280;26164;51.138;16.952;2023-10-19T12:31:29;73800.88;;;-146.39;37.66
40460;BME280;26164;51.138;16.952;2023-10-19T12:33:56;73678.47;;;-146.39;37.10
40460;BME280;26164;51.138;16.952;2023-10-19T12:36:34;73711.13;;;-146.39;36.95
40460;BME280;26164;51.138;16.952;2023-10-19T12:39:02;73788.63;;;-146.39;38.02
40460;BME280;26164;51.138;16.952;2023-10-19T12:41:34;73507.13;;;-146.39;35.51
40460;BME280;26164;51.138;16.952;2023-10-19T12:44:04;73637.69;;;-146.39;36.40
40460;BME280;26164;51.138;16.952;2023-10-19T12:46:43;73694.81;;;-146.39;36.79
40460;BME280;26164;51.138;16.952;2023-10-19T12:49:14;73462.25;;;-146.39;35.36
40460;BME280;26164;51.138;16.952;2023-10-19T12:52:01;73688.69;;;-146.39;36.65
40460;BME280;26164;51.138;16.952;2023-10-19T12:54:46;73623.41;;;-146.39;36.40
40460;BME280;26164;51.138;16.952;2023-10-19T12:57:21;73715.19;;;-146.39;37.09
40460;BME280;26164;51.138;16.952;2023-10-19T13:00:06;73564.25;;;-146.39;35.94
40460;BME280;26164;51.138;16.952;2023-10-19T13:02:57;73552.00;;;-146.39;35.95
40460;BME280;26164;51.138;16.952;2023-10-19T13:05:43;73700.91;;;-146.39;36.85
40460;BME280;26164;51.138;16.952;2023-10-19T13:08:48;73498.97;;;-146.39;35.61
40460;BME280;26164;51.138;16.952;2023-10-19T13:15:31;73668.28;;;-146.39;37.11
40460;BME280;26164;51.138;16.952;2023-10-19T13:19:04;73480.59;;;-146.39;35.73
40460;BME280;26164;51.138;16.952;2023-10-19T13:31:02;73543.84;;;-146.39;36.66
40460;BME280;26164;51.138;16.952;2023-10-19T13:35:10;73849.84;;;-146.39;39.47
40460;BME280;26164;51.138;16.952;2023-10-19T13:38:50;73633.59;;;-146.39;36.91
40460;BME280;26164;51.138;16.952;2023-10-19T14:48:22;73556.06;;;-146.39;37.22
40460;BME280;26164;51.138;16.952;2023-10-19T16:26:58;73445.91;;;-146.39;37.13
40460;BME280;26164;51.138;16.952;2023-10-19T16:30:12;73527.53;;;-146.39;37.58
40460;BME280;26164;51.138;16.952;2023-10-19T16:45:46;73437.75;;;-146.39;36.62
40460;BME280;26164;51.138;16.952;2023-10-19T16:54:44;73441.84;;;-146.39;36.66
40460;BME280;26164;51.138;16.952;2023-10-19T17:00:28;73482.63;;;-146.39;37.03
40460;BME280;26164;51.138;16.952;2023-10-19T17:03:13;73590.75;;;-146.39;38.22
40460;BME280;26164;51.138;16.952;2023-10-19T17:05:44;73466.31;;;-146.39;37.03
40460;BME280;26164;51.138;16.952;2023-10-19T17:08:10;73403.09;;;-146.39;36.27
40460;BME280;26164;51.138;16.952;2023-10-19T17:10:55;73360.25;;;-146.39;35.95
40460;BME280;26164;51.138;16.952;2023-10-19T17:13:40;73323.53;;;-146.39;35.55
40460;BME280;26164;51.138;16.952;2023-10-19T17:16:14;73348.00;;;-146.39;36.15
40460;BME280;26164;51.138;16.952;2023-10-19T17:18:44;73368.41;;;-146.39;36.18
40460;BME280;26164;51.138;16.952;2023-10-19T17:21:21;73325.56;;;-146.39;36.00
40460;BME280;26164;51.138;16.952;2023-10-19T17:23:50;73339.84;;;-146.39;36.13
40460;BME280;26164;51.138;16.952;2023-10-19T17:26:25;73513.25;;;-146.39;37.64
40460;BME280;26164;51.138;16.952;2023-10-19T17:29:35;73454.09;;;-146.39;37.73
40460;BME280;26164;51.138;16.952;2023-10-19T17:32:16;73584.63;;;-146.39;38.70
40460;BME280;26164;51.138;16.952;2023-10-19T17:34:48;73507.13;;;-146.39;38.09
40460;BME280;26164;51.138;16.952;2023-10-19T17:37:15;73519.34;;;-146.39;38.26
40460;BME280;26164;51.138;16.952;2023-10-19T17:39:42;73478.56;;;-146.39;37.57
40460;BME280;26164;51.138;16.952;2023-10-19T17:42:08;73468.38;;;-146.39;37.59
40460;BME280;26164;51.138;16.952;2023-10-19T17:44:46;73337.81;;;-146.39;36.47
40460;BME280;26164;51.138;16.952;2023-10-19T17:47:32;73392.88;;;-146.39;36.70
40460;BME280;26164;51.138;16.952;2023-10-19T17:49:59;73450.00;;;-146.39;37.21
40460;BME280;26164;51.138;16.952;2023-10-19T17:52:25;73372.47;;;-146.39;36.47
40460;BME280;26164;51.138;16.952;2023-10-19T17:54:51;73376.56;;;-146.39;36.81
40460;BME280;26164;51.138;16.952;2023-10-19T17:57:19;73470.41;;;-146.39;37.37
40460;BME280;26164;51.138;16.952;2023-10-19T18:00:02;73431.66;;;-146.39;37.13
40460;BME280;26164;51.138;16.952;2023-10-19T18:02:31;73384.72;;;-146.39;36.58
40460;BME280;26164;51.138;16.952;2023-10-19T18:05:04;73309.25;;;-146.39;36.08
40460;BME280;26164;51.138;16.952;2023-10-19T18:07:46;73396.97;;;-146.39;36.53
40460;BME280;26164;51.138;16.952;2023-10-19T18:10:14;73482.63;;;-146.39;37.43
40460;BME280;26164;51.138;16.952;2023-10-19T18:12:41;73511.19;;;-146.39;37.89
40460;BME280;26164;51.138;16.952;2023-10-19T18:15:25;73321.50;;;-146.39;36.09
40460;BME280;26164;51.138;16.952;2023-10-19T18:18:13;73496.91;;;-146.39;37.97
40460;BME280;26164;51.138;16.952;2023-10-19T18:20:49;73617.28;;;-146.39;39.15
40460;BME280;26164;51.138;16.952;2023-10-19T18:23:17;73478.56;;;-146.39;38.21
40460;BME280;26164;51.138;16.952;2023-10-19T18:26:17;73380.66;;;-146.39;37.22
40460;BME280;26164;51.138;16.952;2023-10-19T18:28:55;73474.47;;;-146.39;38.08
40460;BME280;26164;51.138;16.952;2023-10-19T18:31:47;73362.28;;;-146.39;37.22
40460;BME280;26164;51.138;16.952;2023-10-19T18:53:20;73354.13;;;-146.39;36.83
40460;BME280;26164;51.138;16.952;2023-10-19T18:57:07;73368.41;;;-146.39;37.40
40460;BME280;26164;51.138;16.952;2023-10-19T19:00:09;73494.88;;;-146.39;38.19
40460;BME280;26164;51.138;16.952;2023-10-19T19:06:32;73609.13;;;-146.39;40.12
40460;BME280;26164;51.138;16.952;2023-10-19T19:10:01;73560.16;;;-146.39;39.82
40460;BME280;26164;51.138;16.952;2023-10-19T19:13:16;73466.31;;;-146.39;38.47
40460;BME280;26164;51.138;16.952;2023-10-19T19:15:45;73452.03;;;-146.39;37.99
40460;BME280;26164;51.138;16.952;2023-10-19T19:18:17;73507.13;;;-146.39;38.98
40460;BME280;26164;51.138;16.952;2023-10-19T19:23:58;73545.88;;;-146.39;39.20
40460;BME280;26164;51.138;16.952;2023-10-19T19:26:44;73490.81;;;-146.39;38.72
40460;BME280;26164;51.138;16.952;2023-10-19T19:29:50;73539.75;;;-146.39;39.57
40460;BME280;26164;51.138;16.952;2023-10-19T19:32:36;73372.47;;;-146.39;37.92
40460;BME280;26164;51.138;16.952;2023-10-19T19:35:53;73503.03;;;-146.39;38.78
40460;BME280;26164;51.138;16.952;2023-10-19T19:48:10;73484.69;;;-146.39;38.80
40460;BME280;26164;51.138;16.952;2023-10-19T19:58:51;73458.16;;;-146.39;38.88
40460;BME280;26164;51.138;16.952;2023-10-19T20:33:12;73368.41;;;-146.39;38.21
40460;BME280;26164;51.138;16.952;2023-10-19T20:36:47;73552.00;;;-146.39;40.90
40460;BME280;26164;51.138;16.952;2023-10-19T20:39:40;73384.72;;;-146.39;39.27
40460;BME280;26164;51.138;16.952;2023-10-19T20:42:19;73556.06;;;-146.39;40.43
40460;BME280;26164;51.138;16.952;2023-10-19T20:45:20;73641.75;;;-146.39;42.55
40460;BME280;26164;51.138;16.952;2023-10-19T20:48:24;73560.16;;;-146.39;40.85
40460;BME280;26164;51.138;16.952;2023-10-19T20:50:54;73423.47;;;-146.39;39.46
40460;BME280;26164;51.138;16.952;2023-10-19T20:53:23;73511.19;;;-146.39;39.58
40460;BME280;26164;51.138;16.952;2023-10-19T20:55:58;73568.31;;;-146.39;40.41
40460;BME280;26164;51.138;16.952;2023-10-19T20:58:25;73576.47;;;-146.39;40.25
40460;BME280;26164;51.138;16.952;2023-10-19T21:01:06;73707.03;;;-146.39;42.67
40460;BME280;26164;51.138;16.952;2023-10-19T21:03:48;73556.06;;;-146.39;40.59
40460;BME280;26164;51.138;16.952;2023-10-19T21:06:15;73454.09;;;-146.39;39.56
40460;BME280;26164;51.138;16.952;2023-10-19T21:08:45;73637.69;;;-146.39;41.15
40460;BME280;26164;51.138;16.952;2023-10-19T21:11:15;73470.41;;;-146.39;39.85
40460;BME280;26164;51.138;16.952;2023-10-19T21:13:46;73549.97;;;-146.39;40.77
40460;BME280;26164;51.138;16.952;2023-10-19T21:16:14;73596.88;;;-146.39;41.37
40460;BME280;26164;51.138;16.952;2023-10-19T21:18:46;73596.88;;;-146.39;41.33
40460;BME280;26164;51.138;16.952;2023-10-19T21:21:18;73480.59;;;-146.39;39.92
40460;BME280;26164;51.138;16.952;2023-10-19T21:24:24;73523.44;;;-146.39;39.89
40460;BME280;26164;51.138;16.952;2023-10-19T21:31:27;73480.59;;;-146.39;39.62
40460;BME280;26164;51.138;16.952;2023-10-19T21:34:44;73454.09;;;-146.39;39.71
40460;BME280;26164;51.138;16.952;2023-10-19T21:37:52;73556.06;;;-146.39;40.02
40460;BME280;26164;51.138;16.952;2023-10-19T21:40:46;73686.63;;;-146.39;42.30
40460;BME280;26164;51.138;16.952;2023-10-19T21:43:22;73656.03;;;-146.39;42.19
40460;BME280;26164;51.138;16.952;2023-10-19T21:46:10;73519.34;;;-146.39;40.72
40460;BME280;26164;51.138;16.952;2023-10-19T21:49:11;73535.69;;;-146.39;39.44
40460;BME280;26164;51.138;16.952;2023-10-19T21:52:07;73443.88;;;-146.39;39.59
40460;BME280;26164;51.138;16.952;2023-10-19T21:55:27;73556.06;;;-146.39;39.18
40460;BME280;26164;51.138;16.952;2023-10-19T21:58:24;73415.31;;;-146.39;39.07
40460;BME280;26164;51.138;16.952;2023-10-19T22:01:58;73376.56;;;-146.39;37.88
40460;BME280;26164;51.138;16.952;2023-10-19T22:04:31;73454.09;;;-146.39;38.46
40460;BME280;26164;51.138;16.952;2023-10-19T22:06:58;73348.00;;;-146.39;37.74
40460;BME280;26164;51.138;16.952;2023-10-19T22:09:33;73352.09;;;-146.39;37.48
40460;BME280;26164;51.138;16.952;2023-10-19T22:12:07;73686.63;;;-146.39;40.32
40460;BME280;26164;51.138;16.952;2023-10-19T22:14:57;73425.53;;;-146.39;38.51
40460;BME280;26164;51.138;16.952;2023-10-19T22:17:30;73392.88;;;-146.39;38.13
40460;BME280;26164;51.138;16.952;2023-10-19T22:20:19;73429.59;;;-146.39;38.17
40460;BME280;26164;51.138;16.952;2023-10-19T22:22:51;73454.09;;;-146.39;38.25
40460;BME280;26164;51.138;16.952;2023-10-19T22:25:21;73702.97;;;-146.39;41.68
40460;BME280;26164;51.138;16.952;2023-10-19T22:27:49;73717.25;;;-146.39;42.33
40460;BME280;26164;51.138;16.952;2023-10-19T22:30:30;73568.31;;;-146.39;41.06
40460;BME280;26164;51.138;16.952;2023-10-19T22:32:59;73531.59;;;-146.39;40.04
40460;BME280;26164;51.138;16.952;2023-10-19T22:35:25;73450.00;;;-146.39;38.90
40460;BME280;26164;51.138;16.952;2023-10-19T22:37:53;73494.88;;;-146.39;39.30
40460;BME280;26164;51.138;16.952;2023-10-19T22:40:22;73472.44;;;-146.39;39.15
40460;BME280;26164;51.138;16.952;2023-10-19T22:42:48;73568.31;;;-146.39;39.88
40460;BME280;26164;51.138;16.952;2023-10-19T22:45:15;73568.31;;;-146.39;40.05
40460;BME280;26164;51.138;16.952;2023-10-19T22:47:47;73629.53;;;-146.39;41.56
40460;BME280;26164;51.138;16.952;2023-10-19T22:50:47;73870.25;;;-146.39;44.82
40460;BME280;26164;51.138;16.952;2023-10-19T22:53:34;73788.63;;;-146.39;44.65
40460;BME280;26164;51.138;16.952;2023-10-19T22:56:18;73715.19;;;-146.39;43.26
40460;BME280;26164;51.138;16.952;2023-10-19T22:58:44;73715.19;;;-146.39;44.08
40460;BME280;26164;51.138;16.952;2023-10-19T23:01:14;73780.47;;;-146.39;44.20
40460;BME280;26164;51.138;16.952;2023-10-19T23:03:40;73645.84;;;-146.39;42.46
40460;BME280;26164;51.138;16.952;2023-10-19T23:06:10;73735.59;;;-146.39;43.80
40460;BME280;26164;51.138;16.952;2023-10-19T23:08:37;73727.44;;;-146.39;44.15
40460;BME280;26164;51.138;16.952;2023-10-19T23:11:07;73649.91;;;-146.39;43.79
40460;BME280;26164;51.138;16.952;2023-10-19T23:13:36;73804.97;;;-146.39;45.44
40460;BME280;26164;51.138;16.952;2023-10-19T23:16:03;73715.19;;;-146.39;43.85
40460;BME280;26164;51.138;16.952;2023-10-19T23:18:32;73572.41;;;-146.39;41.35
40460;BME280;26164;51.138;16.952;2023-10-19T23:21:04;73674.41;;;-146.39;43.27
40460;BME280;26164;51.138;16.952;2023-10-19T23:23:34;73747.84;;;-146.39;44.31
40460;BME280;26164;51.138;16.952;2023-10-19T23:26:00;73800.88;;;-146.39;45.19
40460;BME280;26164;51.138;16.952;2023-10-19T23:28:29;73800.88;;;-146.39;45.21
40460;BME280;26164;51.138;16.952;2023-10-19T23:30:58;73615.25;;;-146.39;42.72
40460;BME280;26164;51.138;16.952;2023-10-19T23:33:45;73621.34;;;-146.39;42.14
40460;BME280;26164;51.138;16.952;2023-10-19T23:36:26;73756.00;;;-146.39;44.36
40460;BME280;26164;51.138;16.952;2023-10-19T23:38:53;73633.59;;;-146.39;42.23
40460;BME280;26164;51.138;16.952;2023-10-19T23:41:19;73445.91;;;-146.39;40.03
40460;BME280;26164;51.138;16.952;2023-10-19T23:43:46;73441.84;;;-146.39;39.22
40460;BME280;26164;51.138;16.952;2023-10-19T23:46:12;73466.31;;;-146.39;39.47
40460;BME280;26164;51.138;16.952;2023-10-19T23:48:39;73560.16;;;-146.39;40.81
40460;BME280;26164;51.138;16.952;2023-10-19T23:51:09;73576.47;;;-146.39;41.01
40460;BME280;26164;51.138;16.952;2023-10-19T23:53:37;73629.53;;;-146.39;41.68
40460;BME280;26164;51.138;16.952;2023-10-19T23:56:03;73743.75;;;-146.39;43.18
40460;BME280;26164;51.138;16.952;2023-10-19T23:58:31;73678.47;;;-146.39;42.22
